sensor_id;sensor_type;location;lat;lon;timestamp;P1;durP1;ratioP1;P2;durP2;ratioP2
72728;SDS011;60843;52.062;4.508;2022-08-14T00:02:01;6.15;;;3.97;;
72728;SDS011;60843;52.062;4.508;2022-08-14T00:04:28;6.68;;;3.80;;
72728;SDS011;60843;52.062;4.508;2022-08-14T00:06:54;5.65;;;3.63;;
72728;SDS011;60843;52.062;4.508;2022-08-14T00:09:20;7.03;;;3.70;;
72728;SDS011;60843;52.062;4.508;2022-08-14T00:11:45;5.53;;;3.60;;
72728;SDS011;60843;52.062;4.508;2022-08-14T00:14:11;7.47;;;3.60;;
72728;SDS011;60843;52.062;4.508;2022-08-14T00:16:36;10.00;;;3.63;;
72728;SDS011;60843;52.062;4.508;2022-08-14T00:19:02;6.85;;;3.63;;
72728;SDS011;60843;52.062;4.508;2022-08-14T00:21:28;4.55;;;3.35;;
72728;SDS011;60843;52.062;4.508;2022-08-14T00:23:54;7.63;;;3.90;;
72728;SDS011;60843;52.062;4.508;2022-08-14T00:26:21;8.23;;;4.30;;
72728;SDS011;60843;52.062;4.508;2022-08-14T00:28:47;7.68;;;4.78;;
72728;SDS011;60843;52.062;4.508;2022-08-14T00:31:13;7.00;;;4.13;;
72728;SDS011;60843;52.062;4.508;2022-08-14T00:33:39;6.00;;;4.28;;
72728;SDS011;60843;52.062;4.508;2022-08-14T00:36:05;7.32;;;4.25;;
72728;SDS011;60843;52.062;4.508;2022-08-14T00:38:31;5.45;;;4.28;;
72728;SDS011;60843;52.062;4.508;2022-08-14T00:40:57;7.70;;;4.75;;
72728;SDS011;60843;52.062;4.508;2022-08-14T00:43:23;7.53;;;4.45;;
72728;SDS011;60843;52.062;4.508;2022-08-14T00:45:49;8.63;;;4.35;;
72728;SDS011;60843;52.062;4.508;2022-08-14T00:48:14;8.70;;;5.32;;
72728;SDS011;60843;52.062;4.508;2022-08-14T00:53:08;6.53;;;5.03;;
72728;SDS011;60843;52.062;4.508;2022-08-14T00:55:35;10.35;;;6.18;;
72728;SDS011;60843;52.062;4.508;2022-08-14T00:58:01;7.75;;;5.63;;
72728;SDS011;60843;52.062;4.508;2022-08-14T01:00:46;7.80;;;5.65;;
72728;SDS011;60843;52.062;4.508;2022-08-14T01:03:12;9.20;;;5.95;;
72728;SDS011;60843;52.062;4.508;2022-08-14T01:05:40;8.32;;;6.03;;
72728;SDS011;60843;52.062;4.508;2022-08-14T01:08:09;11.27;;;6.35;;
72728;SDS011;60843;52.062;4.508;2022-08-14T01:10:35;11.02;;;6.40;;
72728;SDS011;60843;52.062;4.508;2022-08-14T01:13:18;10.43;;;6.25;;
72728;SDS011;60843;52.062;4.508;2022-08-14T01:15:46;9.32;;;5.90;;
72728;SDS011;60843;52.062;4.508;2022-08-14T01:18:15;9.93;;;6.40;;
72728;SDS011;60843;52.062;4.508;2022-08-14T01:20:59;10.60;;;6.30;;
72728;SDS011;60843;52.062;4.508;2022-08-14T01:23:28;8.30;;;5.88;;
72728;SDS011;60843;52.062;4.508;2022-08-14T01:25:55;9.25;;;5.53;;
72728;SDS011;60843;52.062;4.508;2022-08-14T01:28:22;6.78;;;5.32;;
72728;SDS011;60843;52.062;4.508;2022-08-14T01:30:50;11.05;;;5.50;;
72728;SDS011;60843;52.062;4.508;2022-08-14T01:33:21;5.68;;;4.63;;
72728;SDS011;60843;52.062;4.508;2022-08-14T01:35:47;6.05;;;4.93;;
72728;SDS011;60843;52.062;4.508;2022-08-14T01:38:12;8.38;;;5.20;;
72728;SDS011;60843;52.062;4.508;2022-08-14T01:40:41;7.40;;;5.20;;
72728;SDS011;60843;52.062;4.508;2022-08-14T01:43:13;7.38;;;5.25;;
72728;SDS011;60843;52.062;4.508;2022-08-14T01:45:42;8.25;;;4.88;;
72728;SDS011;60843;52.062;4.508;2022-08-14T01:48:09;6.78;;;4.60;;
72728;SDS011;60843;52.062;4.508;2022-08-14T01:50:47;9.98;;;5.28;;
72728;SDS011;60843;52.062;4.508;2022-08-14T01:53:26;5.55;;;4.78;;
72728;SDS011;60843;52.062;4.508;2022-08-14T01:55:53;6.43;;;4.95;;
72728;SDS011;60843;52.062;4.508;2022-08-14T01:58:21;8.27;;;4.97;;
72728;SDS011;60843;52.062;4.508;2022-08-14T02:03:18;7.53;;;4.45;;
72728;SDS011;60843;52.062;4.508;2022-08-14T02:05:44;10.43;;;5.00;;
72728;SDS011;60843;52.062;4.508;2022-08-14T02:08:10;8.00;;;4.72;;
72728;SDS011;60843;52.062;4.508;2022-08-14T02:10:39;7.63;;;4.95;;
72728;SDS011;60843;52.062;4.508;2022-08-14T02:13:06;6.45;;;4.70;;
72728;SDS011;60843;52.062;4.508;2022-08-14T02:15:32;7.47;;;4.78;;
72728;SDS011;60843;52.062;4.508;2022-08-14T02:17:58;6.88;;;4.32;;
72728;SDS011;60843;52.062;4.508;2022-08-14T02:20:31;7.18;;;5.20;;
72728;SDS011;60843;52.062;4.508;2022-08-14T02:22:58;6.45;;;4.57;;
72728;SDS011;60843;52.062;4.508;2022-08-14T02:25:24;6.60;;;4.18;;
72728;SDS011;60843;52.062;4.508;2022-08-14T02:27:50;7.00;;;4.93;;
72728;SDS011;60843;52.062;4.508;2022-08-14T02:30:15;7.30;;;4.60;;
72728;SDS011;60843;52.062;4.508;2022-08-14T02:32:41;7.13;;;4.93;;
72728;SDS011;60843;52.062;4.508;2022-08-14T02:35:07;7.43;;;4.95;;
72728;SDS011;60843;52.062;4.508;2022-08-14T02:37:37;8.38;;;5.18;;
72728;SDS011;60843;52.062;4.508;2022-08-14T02:40:05;7.97;;;5.45;;
72728;SDS011;60843;52.062;4.508;2022-08-14T02:42:30;6.78;;;5.07;;
72728;SDS011;60843;52.062;4.508;2022-08-14T02:44:56;10.57;;;4.95;;
72728;SDS011;60843;52.062;4.508;2022-08-14T02:47:22;6.35;;;4.57;;
72728;SDS011;60843;52.062;4.508;2022-08-14T02:49:48;6.85;;;4.93;;
72728;SDS011;60843;52.062;4.508;2022-08-14T02:52:13;7.88;;;5.07;;
72728;SDS011;60843;52.062;4.508;2022-08-14T02:54:39;5.97;;;4.93;;
72728;SDS011;60843;52.062;4.508;2022-08-14T02:57:05;8.63;;;5.40;;
72728;SDS011;60843;52.062;4.508;2022-08-14T02:59:31;7.53;;;5.25;;
72728;SDS011;60843;52.062;4.508;2022-08-14T03:01:58;6.10;;;4.72;;
72728;SDS011;60843;52.062;4.508;2022-08-14T03:04:24;6.68;;;5.45;;
72728;SDS011;60843;52.062;4.508;2022-08-14T03:06:54;7.65;;;5.10;;
72728;SDS011;60843;52.062;4.508;2022-08-14T03:09:19;8.45;;;5.68;;
72728;SDS011;60843;52.062;4.508;2022-08-14T03:11:45;6.97;;;5.30;;
72728;SDS011;60843;52.062;4.508;2022-08-14T03:14:11;10.13;;;5.22;;
72728;SDS011;60843;52.062;4.508;2022-08-14T03:16:38;7.35;;;5.47;;
72728;SDS011;60843;52.062;4.508;2022-08-14T03:19:06;9.50;;;5.80;;
72728;SDS011;60843;52.062;4.508;2022-08-14T03:21:32;9.88;;;5.72;;
72728;SDS011;60843;52.062;4.508;2022-08-14T03:23:59;8.43;;;5.93;;
72728;SDS011;60843;52.062;4.508;2022-08-14T03:26:37;7.47;;;5.63;;
72728;SDS011;60843;52.062;4.508;2022-08-14T03:29:05;7.15;;;5.63;;
72728;SDS011;60843;52.062;4.508;2022-08-14T03:31:31;8.98;;;5.85;;
72728;SDS011;60843;52.062;4.508;2022-08-14T03:33:57;8.73;;;6.03;;
72728;SDS011;60843;52.062;4.508;2022-08-14T03:36:23;11.60;;;6.20;;
72728;SDS011;60843;52.062;4.508;2022-08-14T03:41:24;9.35;;;5.78;;
72728;SDS011;60843;52.062;4.508;2022-08-14T03:43:52;7.45;;;5.63;;
72728;SDS011;60843;52.062;4.508;2022-08-14T03:46:19;9.80;;;5.88;;
72728;SDS011;60843;52.062;4.508;2022-08-14T03:48:46;9.07;;;6.03;;
72728;SDS011;60843;52.062;4.508;2022-08-14T03:51:11;12.50;;;5.63;;
72728;SDS011;60843;52.062;4.508;2022-08-14T03:53:39;7.38;;;5.90;;
72728;SDS011;60843;52.062;4.508;2022-08-14T03:56:06;13.13;;;5.72;;
72728;SDS011;60843;52.062;4.508;2022-08-14T03:58:34;7.40;;;5.68;;
72728;SDS011;60843;52.062;4.508;2022-08-14T04:01:03;9.40;;;6.25;;
72728;SDS011;60843;52.062;4.508;2022-08-14T04:03:29;9.05;;;6.18;;
72728;SDS011;60843;52.062;4.508;2022-08-14T04:05:55;9.43;;;6.30;;
72728;SDS011;60843;52.062;4.508;2022-08-14T04:08:21;9.88;;;6.40;;
72728;SDS011;60843;52.062;4.508;2022-08-14T04:10:47;8.75;;;6.43;;
72728;SDS011;60843;52.062;4.508;2022-08-14T04:13:13;9.10;;;6.43;;
72728;SDS011;60843;52.062;4.508;2022-08-14T04:15:45;8.85;;;6.57;;
72728;SDS011;60843;52.062;4.508;2022-08-14T04:18:11;8.52;;;6.65;;
72728;SDS011;60843;52.062;4.508;2022-08-14T04:20:37;8.75;;;6.28;;
72728;SDS011;60843;52.062;4.508;2022-08-14T04:23:04;9.18;;;6.50;;
72728;SDS011;60843;52.062;4.508;2022-08-14T04:25:31;11.50;;;6.70;;
72728;SDS011;60843;52.062;4.508;2022-08-14T04:27:58;10.68;;;6.43;;
72728;SDS011;60843;52.062;4.508;2022-08-14T04:30:24;10.45;;;6.25;;
72728;SDS011;60843;52.062;4.508;2022-08-14T04:33:03;10.10;;;6.75;;
72728;SDS011;60843;52.062;4.508;2022-08-14T04:37:56;7.90;;;6.20;;
72728;SDS011;60843;52.062;4.508;2022-08-14T04:40:40;9.45;;;6.28;;
72728;SDS011;60843;52.062;4.508;2022-08-14T04:43:24;8.75;;;6.15;;
72728;SDS011;60843;52.062;4.508;2022-08-14T04:46:14;10.07;;;6.78;;
72728;SDS011;60843;52.062;4.508;2022-08-14T04:48:41;14.35;;;6.97;;
72728;SDS011;60843;52.062;4.508;2022-08-14T04:51:08;10.50;;;6.78;;
72728;SDS011;60843;52.062;4.508;2022-08-14T04:53:36;11.05;;;6.60;;
72728;SDS011;60843;52.062;4.508;2022-08-14T04:56:04;9.10;;;6.95;;
72728;SDS011;60843;52.062;4.508;2022-08-14T04:58:31;9.60;;;7.03;;
72728;SDS011;60843;52.062;4.508;2022-08-14T05:00:57;9.50;;;6.72;;
72728;SDS011;60843;52.062;4.508;2022-08-14T05:03:26;9.52;;;6.60;;
72728;SDS011;60843;52.062;4.508;2022-08-14T05:05:53;7.78;;;6.15;;
72728;SDS011;60843;52.062;4.508;2022-08-14T05:08:20;9.02;;;6.75;;
72728;SDS011;60843;52.062;4.508;2022-08-14T05:10:48;9.45;;;6.40;;
72728;SDS011;60843;52.062;4.508;2022-08-14T05:13:41;8.90;;;6.50;;
72728;SDS011;60843;52.062;4.508;2022-08-14T05:16:08;9.52;;;6.80;;
72728;SDS011;60843;52.062;4.508;2022-08-14T05:21:13;8.75;;;6.35;;
72728;SDS011;60843;52.062;4.508;2022-08-14T05:23:59;9.82;;;6.13;;
72728;SDS011;60843;52.062;4.508;2022-08-14T05:26:24;10.80;;;7.30;;
72728;SDS011;60843;52.062;4.508;2022-08-14T05:28:50;10.32;;;6.95;;
72728;SDS011;60843;52.062;4.508;2022-08-14T05:31:16;11.48;;;6.88;;
72728;SDS011;60843;52.062;4.508;2022-08-14T05:33:42;11.85;;;6.43;;
72728;SDS011;60843;52.062;4.508;2022-08-14T05:36:08;11.48;;;6.70;;
72728;SDS011;60843;52.062;4.508;2022-08-14T05:38:36;9.68;;;6.38;;
72728;SDS011;60843;52.062;4.508;2022-08-14T05:41:03;9.68;;;6.88;;
72728;SDS011;60843;52.062;4.508;2022-08-14T05:43:33;10.32;;;7.03;;
72728;SDS011;60843;52.062;4.508;2022-08-14T05:46:00;9.07;;;6.40;;
72728;SDS011;60843;52.062;4.508;2022-08-14T05:48:26;10.00;;;6.63;;
72728;SDS011;60843;52.062;4.508;2022-08-14T05:50:52;8.95;;;7.07;;
72728;SDS011;60843;52.062;4.508;2022-08-14T05:53:19;11.05;;;7.38;;
72728;SDS011;60843;52.062;4.508;2022-08-14T05:55:45;10.93;;;7.22;;
72728;SDS011;60843;52.062;4.508;2022-08-14T05:58:12;9.05;;;6.45;;
72728;SDS011;60843;52.062;4.508;2022-08-14T06:00:42;9.77;;;6.68;;
72728;SDS011;60843;52.062;4.508;2022-08-14T06:05:35;11.00;;;7.00;;
72728;SDS011;60843;52.062;4.508;2022-08-14T06:08:01;11.13;;;7.43;;
72728;SDS011;60843;52.062;4.508;2022-08-14T06:10:28;9.77;;;6.93;;
72728;SDS011;60843;52.062;4.508;2022-08-14T06:12:55;10.77;;;6.90;;
72728;SDS011;60843;52.062;4.508;2022-08-14T06:15:21;11.32;;;7.20;;
72728;SDS011;60843;52.062;4.508;2022-08-14T06:17:48;9.48;;;6.70;;
72728;SDS011;60843;52.062;4.508;2022-08-14T06:20:15;13.13;;;7.05;;
72728;SDS011;60843;52.062;4.508;2022-08-14T06:22:41;8.40;;;6.47;;
72728;SDS011;60843;52.062;4.508;2022-08-14T06:25:08;8.35;;;6.43;;
72728;SDS011;60843;52.062;4.508;2022-08-14T06:27:35;10.88;;;6.38;;
72728;SDS011;60843;52.062;4.508;2022-08-14T06:30:09;8.95;;;6.72;;
72728;SDS011;60843;52.062;4.508;2022-08-14T06:32:39;7.75;;;6.22;;
72728;SDS011;60843;52.062;4.508;2022-08-14T06:35:05;8.23;;;6.05;;
72728;SDS011;60843;52.062;4.508;2022-08-14T06:37:45;9.95;;;5.60;;
72728;SDS011;60843;52.062;4.508;2022-08-14T06:40:14;9.27;;;5.80;;
72728;SDS011;60843;52.062;4.508;2022-08-14T06:42:42;8.02;;;5.65;;
72728;SDS011;60843;52.062;4.508;2022-08-14T06:45:07;11.05;;;5.88;;
72728;SDS011;60843;52.062;4.508;2022-08-14T06:47:37;8.63;;;5.93;;
72728;SDS011;60843;52.062;4.508;2022-08-14T06:50:05;8.85;;;5.65;;
72728;SDS011;60843;52.062;4.508;2022-08-14T06:52:33;8.00;;;5.80;;
72728;SDS011;60843;52.062;4.508;2022-08-14T06:54:59;9.15;;;5.82;;
72728;SDS011;60843;52.062;4.508;2022-08-14T06:57:35;10.45;;;5.30;;
72728;SDS011;60843;52.062;4.508;2022-08-14T07:00:04;8.23;;;5.57;;
72728;SDS011;60843;52.062;4.508;2022-08-14T07:02:35;6.80;;;5.78;;
72728;SDS011;60843;52.062;4.508;2022-08-14T07:05:21;7.05;;;4.70;;
72728;SDS011;60843;52.062;4.508;2022-08-14T07:08:05;7.53;;;4.85;;
72728;SDS011;60843;52.062;4.508;2022-08-14T07:10:46;7.68;;;5.22;;
72728;SDS011;60843;52.062;4.508;2022-08-14T07:13:14;8.63;;;5.40;;
72728;SDS011;60843;52.062;4.508;2022-08-14T07:15:41;8.40;;;5.22;;
72728;SDS011;60843;52.062;4.508;2022-08-14T07:18:09;8.27;;;5.07;;
72728;SDS011;60843;52.062;4.508;2022-08-14T07:20:37;7.60;;;4.85;;
72728;SDS011;60843;52.062;4.508;2022-08-14T07:23:03;7.80;;;5.28;;
72728;SDS011;60843;52.062;4.508;2022-08-14T07:27:55;6.38;;;5.00;;
72728;SDS011;60843;52.062;4.508;2022-08-14T07:30:21;6.38;;;5.47;;
72728;SDS011;60843;52.062;4.508;2022-08-14T07:32:47;6.88;;;5.30;;
72728;SDS011;60843;52.062;4.508;2022-08-14T07:35:13;7.07;;;4.72;;
72728;SDS011;60843;52.062;4.508;2022-08-14T07:37:40;8.80;;;5.30;;
72728;SDS011;60843;52.062;4.508;2022-08-14T07:40:06;8.60;;;5.55;;
72728;SDS011;60843;52.062;4.508;2022-08-14T07:42:33;7.55;;;5.30;;
72728;SDS011;60843;52.062;4.508;2022-08-14T07:44:59;10.27;;;5.65;;
72728;SDS011;60843;52.062;4.508;2022-08-14T07:47:25;8.30;;;5.85;;
72728;SDS011;60843;52.062;4.508;2022-08-14T07:49:58;7.72;;;5.82;;
72728;SDS011;60843;52.062;4.508;2022-08-14T07:52:26;8.75;;;5.78;;
72728;SDS011;60843;52.062;4.508;2022-08-14T07:54:52;8.23;;;5.85;;
72728;SDS011;60843;52.062;4.508;2022-08-14T07:57:18;7.35;;;5.82;;
72728;SDS011;60843;52.062;4.508;2022-08-14T07:59:44;10.88;;;5.63;;
72728;SDS011;60843;52.062;4.508;2022-08-14T08:02:11;7.90;;;5.90;;
72728;SDS011;60843;52.062;4.508;2022-08-14T08:04:36;7.25;;;5.75;;
72728;SDS011;60843;52.062;4.508;2022-08-14T08:07:10;8.93;;;5.60;;
72728;SDS011;60843;52.062;4.508;2022-08-14T08:09:39;8.55;;;5.45;;
72728;SDS011;60843;52.062;4.508;2022-08-14T08:19:03;8.20;;;5.75;;
72728;SDS011;60843;52.062;4.508;2022-08-14T08:27:28;8.07;;;5.82;;
72728;SDS011;60843;52.062;4.508;2022-08-14T08:30:04;7.50;;;5.63;;
72728;SDS011;60843;52.062;4.508;2022-08-14T08:32:37;7.13;;;5.60;;
72728;SDS011;60843;52.062;4.508;2022-08-14T08:35:17;8.23;;;5.68;;
72728;SDS011;60843;52.062;4.508;2022-08-14T08:37:50;10.38;;;5.78;;
72728;SDS011;60843;52.062;4.508;2022-08-14T08:40:23;8.35;;;6.10;;
72728;SDS011;60843;52.062;4.508;2022-08-14T08:43:31;7.85;;;5.65;;
72728;SDS011;60843;52.062;4.508;2022-08-14T08:46:08;8.85;;;5.80;;
72728;SDS011;60843;52.062;4.508;2022-08-14T08:48:54;8.10;;;5.80;;
72728;SDS011;60843;52.062;4.508;2022-08-14T08:51:24;7.50;;;5.75;;
72728;SDS011;60843;52.062;4.508;2022-08-14T08:53:58;8.75;;;6.15;;
72728;SDS011;60843;52.062;4.508;2022-08-14T08:56:34;7.13;;;4.72;;
72728;SDS011;60843;52.062;4.508;2022-08-14T08:59:21;5.90;;;4.80;;
72728;SDS011;60843;52.062;4.508;2022-08-14T09:02:02;6.15;;;4.72;;
72728;SDS011;60843;52.062;4.508;2022-08-14T09:04:33;7.43;;;4.45;;
72728;SDS011;60843;52.062;4.508;2022-08-14T09:07:01;10.52;;;5.30;;
72728;SDS011;60843;52.062;4.508;2022-08-14T09:09:28;9.43;;;5.30;;
72728;SDS011;60843;52.062;4.508;2022-08-14T09:11:56;8.38;;;5.13;;
72728;SDS011;60843;52.062;4.508;2022-08-14T09:14:26;7.72;;;4.95;;
72728;SDS011;60843;52.062;4.508;2022-08-14T09:16:54;8.95;;;4.82;;
72728;SDS011;60843;52.062;4.508;2022-08-14T09:19:23;7.07;;;4.53;;
72728;SDS011;60843;52.062;4.508;2022-08-14T09:21:50;7.53;;;5.07;;
72728;SDS011;60843;52.062;4.508;2022-08-14T09:24:19;8.43;;;5.43;;
72728;SDS011;60843;52.062;4.508;2022-08-14T09:26:45;6.25;;;4.72;;
72728;SDS011;60843;52.062;4.508;2022-08-14T09:29:13;5.78;;;4.43;;
72728;SDS011;60843;52.062;4.508;2022-08-14T09:31:43;6.72;;;4.43;;
72728;SDS011;60843;52.062;4.508;2022-08-14T09:39:39;6.32;;;4.00;;
72728;SDS011;60843;52.062;4.508;2022-08-14T09:44:41;5.80;;;4.18;;
72728;SDS011;60843;52.062;4.508;2022-08-14T09:47:12;9.18;;;4.10;;
72728;SDS011;60843;52.062;4.508;2022-08-14T09:49:40;6.18;;;3.58;;
72728;SDS011;60843;52.062;4.508;2022-08-14T09:57:03;4.60;;;3.40;;
72728;SDS011;60843;52.062;4.508;2022-08-14T09:59:38;6.35;;;3.42;;
72728;SDS011;60843;52.062;4.508;2022-08-14T10:02:16;6.95;;;3.90;;
72728;SDS011;60843;52.062;4.508;2022-08-14T10:05:08;8.68;;;4.22;;
72728;SDS011;60843;52.062;4.508;2022-08-14T10:07:47;7.57;;;4.07;;
72728;SDS011;60843;52.062;4.508;2022-08-14T10:13:23;7.93;;;5.07;;
72728;SDS011;60843;52.062;4.508;2022-08-14T10:15:49;13.75;;;4.47;;
72728;SDS011;60843;52.062;4.508;2022-08-14T10:18:16;7.47;;;4.68;;
72728;SDS011;60843;52.062;4.508;2022-08-14T10:20:50;5.28;;;4.35;;
72728;SDS011;60843;52.062;4.508;2022-08-14T10:23:20;7.13;;;4.28;;
72728;SDS011;60843;52.062;4.508;2022-08-14T10:28:17;8.32;;;4.00;;
72728;SDS011;60843;52.062;4.508;2022-08-14T10:30:44;5.25;;;3.92;;
72728;SDS011;60843;52.062;4.508;2022-08-14T10:33:28;4.90;;;4.10;;
72728;SDS011;60843;52.062;4.508;2022-08-14T10:35:55;5.90;;;3.95;;
72728;SDS011;60843;52.062;4.508;2022-08-14T10:38:28;5.38;;;3.67;;
72728;SDS011;60843;52.062;4.508;2022-08-14T10:41:12;4.85;;;3.78;;
72728;SDS011;60843;52.062;4.508;2022-08-14T10:43:40;8.32;;;4.20;;
72728;SDS011;60843;52.062;4.508;2022-08-14T10:46:12;5.32;;;3.38;;
72728;SDS011;60843;52.062;4.508;2022-08-14T10:48:39;4.90;;;3.63;;
72728;SDS011;60843;52.062;4.508;2022-08-14T10:51:04;6.82;;;3.78;;
72728;SDS011;60843;52.062;4.508;2022-08-14T10:53:31;8.48;;;3.53;;
72728;SDS011;60843;52.062;4.508;2022-08-14T10:56:12;8.75;;;3.35;;
72728;SDS011;60843;52.062;4.508;2022-08-14T10:58:37;4.10;;;3.50;;
72728;SDS011;60843;52.062;4.508;2022-08-14T11:01:03;12.98;;;4.20;;
72728;SDS011;60843;52.062;4.508;2022-08-14T11:03:41;7.82;;;3.30;;
72728;SDS011;60843;52.062;4.508;2022-08-14T11:06:13;6.90;;;3.55;;
72728;SDS011;60843;52.062;4.508;2022-08-14T11:08:44;4.15;;;2.88;;
72728;SDS011;60843;52.062;4.508;2022-08-14T11:13:39;5.63;;;3.40;;
72728;SDS011;60843;52.062;4.508;2022-08-14T11:16:08;8.05;;;3.20;;
72728;SDS011;60843;52.062;4.508;2022-08-14T11:18:35;8.07;;;3.58;;
72728;SDS011;60843;52.062;4.508;2022-08-14T11:21:01;5.57;;;3.03;;
72728;SDS011;60843;52.062;4.508;2022-08-14T11:23:30;4.00;;;2.90;;
72728;SDS011;60843;52.062;4.508;2022-08-14T11:26:00;4.03;;;2.70;;
72728;SDS011;60843;52.062;4.508;2022-08-14T11:28:27;5.10;;;2.80;;
72728;SDS011;60843;52.062;4.508;2022-08-14T11:30:57;3.72;;;2.60;;
72728;SDS011;60843;52.062;4.508;2022-08-14T11:33:23;6.82;;;3.70;;
72728;SDS011;60843;52.062;4.508;2022-08-14T11:35:53;4.97;;;3.35;;
72728;SDS011;60843;52.062;4.508;2022-08-14T11:38:18;4.40;;;3.00;;
72728;SDS011;60843;52.062;4.508;2022-08-14T11:40:45;4.95;;;2.97;;
72728;SDS011;60843;52.062;4.508;2022-08-14T11:43:11;3.35;;;2.72;;
72728;SDS011;60843;52.062;4.508;2022-08-14T11:45:37;4.90;;;3.30;;
72728;SDS011;60843;52.062;4.508;2022-08-14T11:48:17;4.15;;;2.95;;
72728;SDS011;60843;52.062;4.508;2022-08-14T11:50:44;7.65;;;2.90;;
72728;SDS011;60843;52.062;4.508;2022-08-14T11:53:19;3.70;;;2.95;;
72728;SDS011;60843;52.062;4.508;2022-08-14T11:55:47;3.53;;;2.92;;
72728;SDS011;60843;52.062;4.508;2022-08-14T11:58:14;5.00;;;2.78;;
72728;SDS011;60843;52.062;4.508;2022-08-14T12:00:47;4.57;;;2.60;;
72728;SDS011;60843;52.062;4.508;2022-08-14T12:03:13;4.93;;;2.75;;
72728;SDS011;60843;52.062;4.508;2022-08-14T12:05:39;3.88;;;2.25;;
72728;SDS011;60843;52.062;4.508;2022-08-14T12:08:07;6.45;;;2.90;;
72728;SDS011;60843;52.062;4.508;2022-08-14T12:10:34;2.97;;;2.40;;
72728;SDS011;60843;52.062;4.508;2022-08-14T12:13:11;8.25;;;2.03;;
72728;SDS011;60843;52.062;4.508;2022-08-14T12:15:41;3.72;;;2.55;;
72728;SDS011;60843;52.062;4.508;2022-08-14T12:18:09;3.05;;;2.20;;
72728;SDS011;60843;52.062;4.508;2022-08-14T12:20:36;3.55;;;2.30;;
72728;SDS011;60843;52.062;4.508;2022-08-14T12:23:04;3.42;;;2.20;;
72728;SDS011;60843;52.062;4.508;2022-08-14T12:25:32;5.80;;;2.25;;
72728;SDS011;60843;52.062;4.508;2022-08-14T12:28:01;4.13;;;2.53;;
72728;SDS011;60843;52.062;4.508;2022-08-14T12:30:39;3.63;;;2.20;;
72728;SDS011;60843;52.062;4.508;2022-08-14T12:35:53;3.25;;;2.08;;
72728;SDS011;60843;52.062;4.508;2022-08-14T12:38:30;3.55;;;2.22;;
72728;SDS011;60843;52.062;4.508;2022-08-14T12:41:15;3.20;;;2.15;;
72728;SDS011;60843;52.062;4.508;2022-08-14T12:43:46;3.65;;;1.92;;
72728;SDS011;60843;52.062;4.508;2022-08-14T12:48:55;4.72;;;1.90;;
72728;SDS011;60843;52.062;4.508;2022-08-14T12:51:30;4.40;;;2.08;;
72728;SDS011;60843;52.062;4.508;2022-08-14T12:53:58;5.18;;;1.90;;
72728;SDS011;60843;52.062;4.508;2022-08-14T12:56:24;4.18;;;1.92;;
72728;SDS011;60843;52.062;4.508;2022-08-14T12:58:51;2.92;;;1.63;;
72728;SDS011;60843;52.062;4.508;2022-08-14T13:01:19;3.30;;;1.90;;
72728;SDS011;60843;52.062;4.508;2022-08-14T13:04:20;4.75;;;2.05;;
72728;SDS011;60843;52.062;4.508;2022-08-14T13:15:46;3.08;;;2.08;;
72728;SDS011;60843;52.062;4.508;2022-08-14T13:18:17;2.80;;;2.03;;
72728;SDS011;60843;52.062;4.508;2022-08-14T13:20:43;2.80;;;2.20;;
72728;SDS011;60843;52.062;4.508;2022-08-14T13:23:11;3.05;;;2.25;;
72728;SDS011;60843;52.062;4.508;2022-08-14T13:25:38;3.63;;;2.22;;
72728;SDS011;60843;52.062;4.508;2022-08-14T13:28:06;3.75;;;2.00;;
72728;SDS011;60843;52.062;4.508;2022-08-14T13:30:33;3.00;;;2.10;;
72728;SDS011;60843;52.062;4.508;2022-08-14T13:33:00;5.50;;;1.88;;
72728;SDS011;60843;52.062;4.508;2022-08-14T13:35:29;3.53;;;1.90;;
72728;SDS011;60843;52.062;4.508;2022-08-14T13:37:55;3.53;;;2.60;;
72728;SDS011;60843;52.062;4.508;2022-08-14T13:40:22;2.70;;;2.08;;
72728;SDS011;60843;52.062;4.508;2022-08-14T13:42:49;4.53;;;2.20;;
72728;SDS011;60843;52.062;4.508;2022-08-14T13:45:18;6.25;;;2.20;;
72728;SDS011;60843;52.062;4.508;2022-08-14T13:47:46;3.35;;;2.15;;
72728;SDS011;60843;52.062;4.508;2022-08-14T13:50:13;3.83;;;2.28;;
72728;SDS011;60843;52.062;4.508;2022-08-14T13:52:41;3.92;;;2.30;;
72728;SDS011;60843;52.062;4.508;2022-08-14T13:55:09;13.40;;;2.70;;
72728;SDS011;60843;52.062;4.508;2022-08-14T13:57:38;4.55;;;2.22;;
72728;SDS011;60843;52.062;4.508;2022-08-14T14:00:06;4.65;;;2.92;;
72728;SDS011;60843;52.062;4.508;2022-08-14T14:02:37;7.63;;;2.65;;
72728;SDS011;60843;52.062;4.508;2022-08-14T14:05:06;5.95;;;2.47;;
72728;SDS011;60843;52.062;4.508;2022-08-14T14:07:33;7.00;;;2.50;;
72728;SDS011;60843;52.062;4.508;2022-08-14T14:10:05;4.15;;;2.60;;
72728;SDS011;60843;52.062;4.508;2022-08-14T14:12:32;4.03;;;2.60;;
72728;SDS011;60843;52.062;4.508;2022-08-14T14:15:02;5.55;;;2.58;;
72728;SDS011;60843;52.062;4.508;2022-08-14T14:17:33;3.60;;;2.50;;
72728;SDS011;60843;52.062;4.508;2022-08-14T14:20:00;3.58;;;2.22;;
72728;SDS011;60843;52.062;4.508;2022-08-14T14:22:29;5.03;;;2.60;;
72728;SDS011;60843;52.062;4.508;2022-08-14T14:24:55;3.65;;;2.60;;
72728;SDS011;60843;52.062;4.508;2022-08-14T14:27:20;3.95;;;2.70;;
72728;SDS011;60843;52.062;4.508;2022-08-14T14:29:51;3.13;;;2.53;;
72728;SDS011;60843;52.062;4.508;2022-08-14T14:32:17;4.53;;;2.85;;
72728;SDS011;60843;52.062;4.508;2022-08-14T14:34:49;6.05;;;2.72;;
72728;SDS011;60843;52.062;4.508;2022-08-14T14:37:17;3.85;;;3.10;;
72728;SDS011;60843;52.062;4.508;2022-08-14T14:39:47;5.97;;;2.83;;
72728;SDS011;60843;52.062;4.508;2022-08-14T14:42:14;3.90;;;2.97;;
72728;SDS011;60843;52.062;4.508;2022-08-14T14:44:42;5.97;;;3.33;;
72728;SDS011;60843;52.062;4.508;2022-08-14T14:47:16;6.95;;;3.10;;
72728;SDS011;60843;52.062;4.508;2022-08-14T14:49:45;5.38;;;3.28;;
72728;SDS011;60843;52.062;4.508;2022-08-14T14:52:13;5.68;;;2.88;;
72728;SDS011;60843;52.062;4.508;2022-08-14T14:54:40;3.15;;;2.45;;
72728;SDS011;60843;52.062;4.508;2022-08-14T14:57:08;3.63;;;2.75;;
72728;SDS011;60843;52.062;4.508;2022-08-14T14:59:38;3.75;;;2.80;;
72728;SDS011;60843;52.062;4.508;2022-08-14T15:02:04;3.33;;;2.70;;
72728;SDS011;60843;52.062;4.508;2022-08-14T15:07:00;5.93;;;3.08;;
72728;SDS011;60843;52.062;4.508;2022-08-14T15:09:27;3.90;;;3.05;;
72728;SDS011;60843;52.062;4.508;2022-08-14T15:11:53;4.22;;;3.08;;
72728;SDS011;60843;52.062;4.508;2022-08-14T15:14:19;4.68;;;3.17;;
72728;SDS011;60843;52.062;4.508;2022-08-14T15:16:45;4.82;;;3.35;;
72728;SDS011;60843;52.062;4.508;2022-08-14T15:19:11;2.88;;;2.50;;
72728;SDS011;60843;52.062;4.508;2022-08-14T15:21:37;6.00;;;3.03;;
72728;SDS011;60843;52.062;4.508;2022-08-14T15:24:03;4.30;;;3.00;;
72728;SDS011;60843;52.062;4.508;2022-08-14T15:26:29;5.65;;;3.17;;
72728;SDS011;60843;52.062;4.508;2022-08-14T15:28:55;5.90;;;2.70;;
72728;SDS011;60843;52.062;4.508;2022-08-14T15:31:21;3.92;;;3.00;;
72728;SDS011;60843;52.062;4.508;2022-08-14T15:33:50;4.80;;;3.10;;
72728;SDS011;60843;52.062;4.508;2022-08-14T15:36:34;7.55;;;3.45;;
72728;SDS011;60843;52.062;4.508;2022-08-14T15:39:02;6.43;;;4.82;;
72728;SDS011;60843;52.062;4.508;2022-08-14T15:41:32;7.25;;;4.68;;
72728;SDS011;60843;52.062;4.508;2022-08-14T15:43:59;10.00;;;6.53;;
72728;SDS011;60843;52.062;4.508;2022-08-14T15:46:25;6.85;;;4.22;;
72728;SDS011;60843;52.062;4.508;2022-08-14T15:49:01;6.85;;;3.85;;
72728;SDS011;60843;52.062;4.508;2022-08-14T15:51:31;7.63;;;4.00;;
72728;SDS011;60843;52.062;4.508;2022-08-14T15:54:00;5.35;;;2.80;;
72728;SDS011;60843;52.062;4.508;2022-08-14T15:56:29;4.88;;;3.33;;
72728;SDS011;60843;52.062;4.508;2022-08-14T15:58:58;6.03;;;3.72;;
72728;SDS011;60843;52.062;4.508;2022-08-14T16:01:23;3.53;;;2.90;;
72728;SDS011;60843;52.062;4.508;2022-08-14T16:03:51;3.53;;;2.58;;
72728;SDS011;60843;52.062;4.508;2022-08-14T16:06:19;5.60;;;3.13;;